CheckWX is a tool to help pilots better visualize weather data.  It is not intended as a substitute for an official pre-flight weather briefing.

20:51:53 UTC

GCGM METAR
La Gomera Airport
Alajero, La Gomera Island, Spain
Current

22 mins ago

GCGM 182030Z AUTO VRB14G28KT 9999 NCD 16/07 Q1021 RMK R09/36011G26KT 280V070 ARP/01014G25KT 320V070
Observed
Feb-18 @ 20:30 UTC
Wind
  • Variable at 14 KTS
  • Gusting to 28 KTS
Visibility
10,000+ meters
Flight Rules
VFR
Cloud Levels
  • Clear skies
Temperature
16°C / 61°F
Dewpoint
C / 45°F
Humidity
55%
Altimeter
30.15" Hg
Pressure
1020.92 hPa
Previous

52 mins ago

GCGM 182000Z AUTO VRB16G32KT 9999 NCD 16/07 Q1021 RMK R09/35013G25KT 290V050 ARP/02018G31KT 320V070
Observed
Feb-18 @ 20:00 UTC
Wind
  • Variable at 16 KTS
  • Gusting to 32 KTS
Visibility
10,000+ meters
Flight Rules
VFR
Cloud Levels
  • Clear skies
Temperature
16°C / 61°F
Dewpoint
C / 45°F
Humidity
55%
Altimeter
30.15" Hg
Pressure
1020.92 hPa
Previous

1 hour ago

GCGM 181930Z AUTO VRB16G31KT 9999 NCD 16/07 Q1020 RMK R09/36012G24KT 260V060 ARP/01017G30KT 330V060
Observed
Feb-18 @ 19:30 UTC
Wind
  • Variable at 16 KTS
  • Gusting to 31 KTS
Visibility
10,000+ meters
Flight Rules
VFR
Cloud Levels
  • Clear skies
Temperature
16°C / 61°F
Dewpoint
C / 45°F
Humidity
55%
Altimeter
30.12" Hg
Pressure
1019.92 hPa